createdAt,value
2023-02-22T00:01:08.426Z,5.78
2023-02-22T00:03:39.173Z,5.77
2023-02-22T00:06:07.850Z,5.84
2023-02-22T00:08:36.609Z,5.77
2023-02-22T00:11:08.899Z,5.66
2023-02-22T00:13:37.266Z,5.53
2023-02-22T00:16:07.748Z,5.45
2023-02-22T00:18:37.933Z,5.36
2023-02-22T00:21:10.721Z,5.40
2023-02-22T00:23:41.162Z,5.35
2023-02-22T00:26:17.665Z,5.32
2023-02-22T00:28:58.534Z,5.42
2023-02-22T00:31:27.185Z,5.39
2023-02-22T00:33:59.229Z,5.42
2023-02-22T00:36:27.905Z,5.49
2023-02-22T00:38:56.956Z,5.50
2023-02-22T00:41:25.093Z,5.40
2023-02-22T00:43:53.708Z,5.35
2023-02-22T00:46:23.803Z,5.20
2023-02-22T00:48:55.254Z,5.19
2023-02-22T00:51:30.028Z,5.39
2023-02-22T00:53:58.786Z,5.52
2023-02-22T00:56:26.869Z,5.55
2023-02-22T00:58:54.916Z,5.55
2023-02-22T01:01:25.192Z,5.50
2023-02-22T01:03:53.714Z,5.35
2023-02-22T01:06:22.947Z,5.29
2023-02-22T01:08:53.973Z,5.24
2023-02-22T01:11:24.801Z,5.13
2023-02-22T01:13:54.193Z,5.11
2023-02-22T01:16:23.297Z,5.21
2023-02-22T01:18:51.294Z,5.10
2023-02-22T01:21:20.133Z,5.17
2023-02-22T01:23:48.447Z,5.03
2023-02-22T01:26:18.131Z,4.98
2023-02-22T01:28:48.477Z,5.05
2023-02-22T01:31:17.106Z,5.05
2023-02-22T01:33:47.280Z,5.04
2023-02-22T01:36:15.582Z,4.96
2023-02-22T01:38:45.263Z,4.96
2023-02-22T01:41:18.807Z,4.97
2023-02-22T01:43:47.156Z,5.09
2023-02-22T01:46:22.251Z,5.09
2023-02-22T01:48:52.434Z,5.07
2023-02-22T01:51:23.012Z,5.07
2023-02-22T01:53:53.337Z,4.92
2023-02-22T01:56:25.150Z,4.88
2023-02-22T01:58:57.080Z,4.14
2023-02-22T02:01:26.049Z,3.96
2023-02-22T02:03:58.347Z,3.80
2023-02-22T02:06:27.641Z,3.72
2023-02-22T02:08:59.971Z,3.65
2023-02-22T02:11:30.189Z,3.93
2023-02-22T02:14:01.260Z,4.17
2023-02-22T02:16:37.089Z,4.46
2023-02-22T02:19:05.548Z,4.63
2023-02-22T02:21:52.080Z,4.65
2023-02-22T02:24:34.996Z,4.48
2023-02-22T02:27:11.499Z,4.37
2023-02-22T02:29:54.274Z,4.40
2023-02-22T02:32:43.133Z,4.47
2023-02-22T02:35:16.060Z,4.52
2023-02-22T02:37:49.198Z,4.42
2023-02-22T02:40:22.053Z,4.27
2023-02-22T02:42:56.150Z,3.98
2023-02-22T02:45:27.151Z,3.81
2023-02-22T02:47:58.894Z,3.76
2023-02-22T02:50:30.960Z,3.72
2023-02-22T02:53:02.738Z,3.32
2023-02-22T02:55:31.936Z,3.21
2023-02-22T02:58:01.541Z,3.33
2023-02-22T03:00:32.584Z,3.57
2023-02-22T03:03:07.748Z,3.83
2023-02-22T03:05:53.640Z,3.89
2023-02-22T03:08:31.025Z,3.82
2023-02-22T03:11:05.259Z,3.57
2023-02-22T03:13:37.967Z,3.54
2023-02-22T03:16:13.627Z,3.33
2023-02-22T03:18:46.164Z,3.06
2023-02-22T03:21:22.252Z,2.85
2023-02-22T03:23:54.566Z,2.84
2023-02-22T03:26:27.294Z,3.07
2023-02-22T03:28:58.685Z,3.20
2023-02-22T03:31:32.664Z,3.64
2023-02-22T03:34:04.183Z,3.64
2023-02-22T03:36:39.192Z,3.57
2023-02-22T03:39:08.864Z,3.78
2023-02-22T03:41:39.914Z,3.94
2023-02-22T03:44:09.854Z,3.96
2023-02-22T03:46:39.618Z,3.99
2023-02-22T03:49:11.533Z,4.04
2023-02-22T03:51:42.642Z,3.90
2023-02-22T03:54:16.532Z,3.91
2023-02-22T03:56:50.973Z,3.96
2023-02-22T03:59:26.181Z,3.95
2023-02-22T04:01:55.673Z,3.88
2023-02-22T04:04:24.982Z,3.95
2023-02-22T04:06:54.909Z,4.03
2023-02-22T04:09:23.130Z,4.10
2023-02-22T04:11:51.110Z,4.04
2023-02-22T04:18:00.211Z,3.48
2023-02-22T04:20:31.299Z,3.78
2023-02-22T04:23:05.580Z,3.82
2023-02-22T04:25:33.480Z,4.02
2023-02-22T04:28:14.629Z,4.02
2023-02-22T04:30:51.752Z,4.15
2023-02-22T04:33:22.241Z,4.25
2023-02-22T04:35:51.734Z,4.24
2023-02-22T04:38:21.423Z,4.18
2023-02-22T04:40:51.553Z,4.15
2023-02-22T04:43:23.369Z,4.14
2023-02-22T04:45:54.109Z,4.19
2023-02-22T04:48:22.095Z,4.21
2023-02-22T04:50:51.306Z,4.23
2023-02-22T04:53:21.579Z,4.10
2023-02-22T04:55:49.758Z,4.08
2023-02-22T04:58:18.585Z,3.98
2023-02-22T05:00:47.053Z,3.96
2023-02-22T05:03:19.247Z,4.05
2023-02-22T05:05:47.747Z,3.89
2023-02-22T05:08:16.070Z,3.51
2023-02-22T05:10:46.552Z,3.40
2023-02-22T05:13:16.100Z,3.35
2023-02-22T05:15:44.128Z,3.59
2023-02-22T05:18:12.270Z,3.66
2023-02-22T05:20:40.674Z,3.74
2023-02-22T05:23:09.452Z,3.66
2023-02-22T05:25:38.807Z,3.59
2023-02-22T05:28:12.687Z,3.63
2023-02-22T05:30:41.415Z,3.62
2023-02-22T05:33:09.976Z,3.60
2023-02-22T05:35:38.778Z,3.59
2023-02-22T05:38:07.488Z,3.60
2023-02-22T05:40:35.813Z,3.68
2023-02-22T05:43:08.851Z,3.79
2023-02-22T05:45:37.219Z,3.70
2023-02-22T05:48:06.071Z,3.63
2023-02-22T05:50:34.793Z,3.62
2023-02-22T05:53:03.197Z,3.67
2023-02-22T05:55:31.737Z,3.68
2023-02-22T05:57:59.710Z,3.72
2023-02-22T06:00:29.955Z,3.73
2023-02-22T06:02:58.138Z,3.82
2023-02-22T06:05:27.406Z,3.86
2023-02-22T06:07:55.628Z,3.79
2023-02-22T06:10:24.356Z,3.84
2023-02-22T06:12:52.902Z,3.89
2023-02-22T06:15:21.532Z,4.00
2023-02-22T06:17:50.814Z,4.11
2023-02-22T06:20:20.519Z,4.08
2023-02-22T06:22:48.877Z,4.10
2023-02-22T06:25:17.495Z,4.16
2023-02-22T06:27:47.943Z,4.29
2023-02-22T06:30:18.278Z,4.26
2023-02-22T06:32:46.405Z,4.23
2023-02-22T06:35:16.773Z,4.20
2023-02-22T06:37:45.143Z,4.24
2023-02-22T06:40:13.455Z,4.41
2023-02-22T06:42:41.884Z,4.47
2023-02-22T06:45:10.726Z,4.51
2023-02-22T06:47:42.821Z,4.54
2023-02-22T06:50:19.691Z,4.58
2023-02-22T06:52:49.339Z,4.44
2023-02-22T06:55:20.835Z,4.43
2023-02-22T06:57:49.031Z,4.24
2023-02-22T07:00:18.843Z,4.45
2023-02-22T07:02:48.520Z,4.67
2023-02-22T07:05:17.682Z,4.94
2023-02-22T07:07:45.771Z,5.24
2023-02-22T07:10:19.797Z,5.51
2023-02-22T07:12:48.880Z,5.68
2023-02-22T07:15:18.053Z,5.69
2023-02-22T07:17:46.021Z,5.40
2023-02-22T07:20:14.178Z,4.95
2023-02-22T07:22:42.452Z,4.63
2023-02-22T07:25:11.336Z,4.07
2023-02-22T07:27:41.598Z,3.41
2023-02-22T07:30:16.902Z,3.46
2023-02-22T07:32:45.105Z,3.36
2023-02-22T07:35:15.753Z,3.69
2023-02-22T07:37:44.187Z,4.47
2023-02-22T07:40:12.728Z,5.12
2023-02-22T07:42:55.940Z,5.68
2023-02-22T07:45:24.584Z,6.19
2023-02-22T07:47:52.914Z,6.42
2023-02-22T07:50:21.983Z,6.76
2023-02-22T07:52:50.759Z,6.87
2023-02-22T07:55:19.976Z,7.20
2023-02-22T07:57:48.558Z,7.35
2023-02-22T08:00:23.591Z,7.30
2023-02-22T08:02:52.473Z,7.32
2023-02-22T08:05:21.311Z,7.35
2023-02-22T08:07:49.357Z,7.28
2023-02-22T08:10:18.184Z,7.63
2023-02-22T08:12:46.514Z,7.72
2023-02-22T08:15:17.541Z,8.02
2023-02-22T08:17:46.915Z,8.37
2023-02-22T08:20:15.066Z,8.57
2023-02-22T08:22:44.566Z,8.78
2023-02-22T08:25:12.868Z,8.98
2023-02-22T08:27:40.775Z,9.29
2023-02-22T08:30:09.181Z,9.63
2023-02-22T08:32:37.295Z,9.97
2023-02-22T08:35:07.700Z,10.12
2023-02-22T08:37:35.890Z,10.33
2023-02-22T08:40:04.073Z,10.55
2023-02-22T08:42:31.866Z,10.71
2023-02-22T08:44:59.648Z,11.02
2023-02-22T08:47:27.737Z,11.47
2023-02-22T08:49:55.706Z,11.91
2023-02-22T08:52:24.967Z,12.01
2023-02-22T08:54:52.926Z,11.95
2023-02-22T08:57:21.744Z,11.79
2023-02-22T08:59:49.944Z,11.83
2023-02-22T09:02:19.242Z,11.71
2023-02-22T09:04:47.913Z,11.64
2023-02-22T09:07:16.101Z,11.69
2023-02-22T09:09:45.911Z,12.07
2023-02-22T09:12:13.748Z,12.91
2023-02-22T09:14:43.227Z,13.51
2023-02-22T09:17:11.106Z,13.84
2023-02-22T09:19:38.953Z,13.94
2023-02-22T09:22:06.843Z,12.72
2023-02-22T09:24:34.882Z,12.69
2023-02-22T09:27:07.544Z,13.44
2023-02-22T09:29:35.496Z,13.89
2023-02-22T09:32:04.480Z,14.34
2023-02-22T09:34:35.343Z,14.38
2023-02-22T09:37:05.076Z,15.21
2023-02-22T09:39:37.495Z,15.86
2023-02-22T09:42:10.749Z,16.09
2023-02-22T09:44:44.031Z,15.90
2023-02-22T09:47:15.406Z,16.53
2023-02-22T09:49:47.458Z,16.84
2023-02-22T09:52:19.756Z,16.91
2023-02-22T09:54:51.936Z,16.25
2023-02-22T09:57:26.132Z,16.19
2023-02-22T09:59:58.625Z,15.88
2023-02-22T10:02:29.912Z,13.13
2023-02-22T10:05:01.424Z,12.15
2023-02-22T10:07:32.659Z,12.52
2023-02-22T10:10:06.744Z,13.14
2023-02-22T10:12:41.504Z,12.68
2023-02-22T10:15:30.557Z,13.73
2023-02-22T10:18:05.187Z,14.87
2023-02-22T10:20:42.940Z,15.01
2023-02-22T10:23:14.753Z,15.97
2023-02-22T10:25:45.329Z,15.64
2023-02-22T10:28:17.387Z,15.52
2023-02-22T10:30:49.366Z,15.91
2023-02-22T10:33:20.828Z,13.77
2023-02-22T10:35:49.043Z,12.45
2023-02-22T10:38:20.214Z,11.67
2023-02-22T10:40:50.662Z,11.94
2023-02-22T10:43:20.073Z,13.14
2023-02-22T10:45:48.113Z,15.19
2023-02-22T10:48:18.615Z,16.66
2023-02-22T10:50:47.245Z,16.17
2023-02-22T10:53:19.310Z,16.06
2023-02-22T10:56:06.109Z,16.55
2023-02-22T10:58:42.455Z,16.49
2023-02-22T11:01:19.945Z,16.63
2023-02-22T11:03:57.153Z,16.66
2023-02-22T11:06:25.379Z,16.82
2023-02-22T11:09:04.844Z,15.71
2023-02-22T11:11:34.149Z,15.69
2023-02-22T11:14:06.652Z,16.12
2023-02-22T11:16:36.725Z,17.44
2023-02-22T11:19:10.012Z,15.98
2023-02-22T11:21:38.436Z,16.85
2023-02-22T11:24:09.206Z,18.58
2023-02-22T11:26:39.535Z,16.84
2023-02-22T11:29:22.432Z,18.31
2023-02-22T11:31:50.715Z,18.80
2023-02-22T11:34:30.393Z,20.55
2023-02-22T11:36:58.604Z,20.89
2023-02-22T11:39:30.247Z,22.27
2023-02-22T11:41:58.321Z,22.66
2023-02-22T11:44:28.795Z,23.90
2023-02-22T11:46:57.929Z,24.18
2023-02-22T11:49:34.340Z,24.84
2023-02-22T11:52:10.279Z,24.93
2023-02-22T11:54:48.723Z,25.59
2023-02-22T11:57:26.287Z,26.08
2023-02-22T12:00:16.162Z,25.43
2023-02-22T12:02:57.305Z,24.89
2023-02-22T12:05:37.280Z,23.38
2023-02-22T12:08:19.855Z,21.56
2023-02-22T12:10:55.223Z,20.92
2023-02-22T12:13:31.781Z,19.37
2023-02-22T12:16:07.684Z,17.69
2023-02-22T12:18:39.409Z,18.16
2023-02-22T12:21:10.510Z,19.55
2023-02-22T12:23:44.854Z,21.70
2023-02-22T12:26:16.704Z,23.42
2023-02-22T12:28:48.691Z,23.93
2023-02-22T12:31:23.127Z,22.96
2023-02-22T12:33:56.415Z,24.05
2023-02-22T12:36:28.057Z,25.67
2023-02-22T12:38:58.423Z,22.77
2023-02-22T12:41:28.848Z,24.26
2023-02-22T12:44:01.335Z,25.84
2023-02-22T12:46:32.662Z,28.32
2023-02-22T12:49:05.497Z,29.24
2023-02-22T12:51:35.989Z,28.41
2023-02-22T12:54:08.774Z,28.91
2023-02-22T12:56:38.495Z,29.47
2023-02-22T12:59:10.164Z,30.68
2023-02-22T13:01:41.599Z,30.71
2023-02-22T13:04:20.587Z,30.87
2023-02-22T13:06:56.742Z,32.42
2023-02-22T13:09:34.814Z,32.55
2023-02-22T13:12:05.683Z,32.11
2023-02-22T13:14:39.421Z,30.76
2023-02-22T13:17:13.406Z,29.68
2023-02-22T13:19:48.567Z,25.64
2023-02-22T13:22:20.347Z,27.03
2023-02-22T13:24:56.775Z,27.53
2023-02-22T13:27:30.041Z,26.34
2023-02-22T13:29:59.120Z,25.50
2023-02-22T13:32:38.191Z,27.12
2023-02-22T13:35:17.496Z,23.02
2023-02-22T13:38:03.363Z,25.76
2023-02-22T13:40:57.584Z,27.36
2023-02-22T13:43:43.593Z,25.01
2023-02-22T13:46:26.422Z,20.52
2023-02-22T13:49:40.027Z,19.98
2023-02-22T13:52:10.228Z,22.03
2023-02-22T13:54:41.135Z,20.47
2023-02-22T13:57:19.655Z,20.81
2023-02-22T13:59:50.251Z,19.10
2023-02-22T14:02:39.088Z,20.41
2023-02-22T14:05:22.063Z,21.19
2023-02-22T14:07:51.152Z,19.30
2023-02-22T14:10:46.065Z,17.24
2023-02-22T14:13:14.419Z,16.67
2023-02-22T14:16:00.895Z,16.33
2023-02-22T14:18:30.006Z,18.55
2023-02-22T14:21:06.241Z,17.85
2023-02-22T14:23:40.301Z,18.47
2023-02-22T14:26:12.597Z,21.03
2023-02-22T14:28:42.659Z,19.92
2023-02-22T14:31:17.422Z,19.94
2023-02-22T14:34:05.123Z,20.66
2023-02-22T14:36:35.779Z,21.18
2023-02-22T14:39:08.052Z,18.16
2023-02-22T14:41:38.681Z,18.21
2023-02-22T14:44:06.683Z,16.62
2023-02-22T14:46:40.845Z,16.24
2023-02-22T14:49:10.993Z,15.91
2023-02-22T14:51:43.019Z,16.26
2023-02-22T14:54:16.256Z,16.35
2023-02-22T14:56:49.293Z,16.64
2023-02-22T14:59:18.598Z,16.78
2023-02-22T15:02:01.523Z,16.11
2023-02-22T15:04:33.701Z,15.10
2023-02-22T15:07:02.371Z,14.74
2023-02-22T15:09:37.495Z,14.62
2023-02-22T15:12:12.995Z,14.38
2023-02-22T15:14:44.854Z,14.15
2023-02-22T15:17:15.294Z,14.10
2023-02-22T15:19:43.705Z,14.55
2023-02-22T15:22:21.033Z,14.83
2023-02-22T15:24:58.714Z,15.20
2023-02-22T15:27:27.206Z,14.82
2023-02-22T15:29:59.057Z,14.49
2023-02-22T15:32:31.096Z,14.72
2023-02-22T15:35:10.163Z,15.26
2023-02-22T15:37:38.140Z,15.14
2023-02-22T15:40:14.699Z,14.50
2023-02-22T15:42:46.716Z,14.45
2023-02-22T15:45:19.919Z,14.02
2023-02-22T15:47:47.738Z,14.33
2023-02-22T15:50:17.127Z,14.17
2023-02-22T15:52:48.992Z,13.76
2023-02-22T15:55:18.626Z,13.72
2023-02-22T15:57:46.952Z,13.32
2023-02-22T16:00:21.103Z,13.61
2023-02-22T16:02:51.143Z,13.36
2023-02-22T16:05:19.980Z,13.32
2023-02-22T16:07:49.979Z,13.46
2023-02-22T16:10:23.843Z,13.21
2023-02-22T16:12:52.644Z,12.81
2023-02-22T16:15:20.656Z,12.61
2023-02-22T16:18:01.440Z,12.58
2023-02-22T16:20:34.203Z,12.49
2023-02-22T16:23:02.021Z,12.52
2023-02-22T16:25:35.642Z,12.45
2023-02-22T16:28:06.218Z,12.59
2023-02-22T16:30:35.658Z,12.61
2023-02-22T16:33:05.894Z,12.31
2023-02-22T16:35:35.750Z,12.43
2023-02-22T16:38:04.932Z,12.19
2023-02-22T16:40:35.338Z,12.24
2023-02-22T16:43:03.626Z,11.87
2023-02-22T16:45:31.165Z,11.65
2023-02-22T16:47:59.911Z,11.45
2023-02-22T16:50:27.789Z,11.34
2023-02-22T16:52:58.634Z,11.51
2023-02-22T16:55:27.154Z,11.76
2023-02-22T16:58:01.246Z,11.94
2023-02-22T17:00:32.146Z,11.90
2023-02-22T17:02:59.795Z,11.97
2023-02-22T17:05:27.604Z,11.99
2023-02-22T17:07:55.486Z,12.07
2023-02-22T17:10:23.241Z,12.10
2023-02-22T17:12:53.544Z,12.20
2023-02-22T17:15:27.176Z,12.31
2023-02-22T17:17:55.757Z,12.43
2023-02-22T17:20:29.982Z,12.43
2023-02-22T17:22:59.114Z,12.45
2023-02-22T17:25:28.420Z,12.46
2023-02-22T17:27:56.394Z,12.47
2023-02-22T17:30:25.783Z,12.45
2023-02-22T17:32:56.327Z,12.45
2023-02-22T17:35:27.047Z,12.47
2023-02-22T17:37:56.170Z,12.47
2023-02-22T17:40:25.970Z,12.48
2023-02-22T17:42:55.380Z,12.43
2023-02-22T17:45:24.192Z,12.39
2023-02-22T17:47:53.932Z,12.31
2023-02-22T17:50:22.569Z,12.19
2023-02-22T17:52:51.637Z,12.02
2023-02-22T17:55:19.781Z,11.89
2023-02-22T17:57:48.995Z,11.86
2023-02-22T18:00:23.332Z,11.87
2023-02-22T18:02:52.072Z,11.87
2023-02-22T18:05:21.337Z,11.84
2023-02-22T18:07:49.910Z,11.82
2023-02-22T18:10:22.058Z,11.82
2023-02-22T18:12:50.345Z,11.82
2023-02-22T18:15:21.504Z,11.75
2023-02-22T18:17:57.549Z,11.72
2023-02-22T18:20:31.132Z,11.64
2023-02-22T18:23:02.384Z,11.55
2023-02-22T18:25:30.683Z,11.46
2023-02-22T18:27:58.480Z,11.32
2023-02-22T18:30:29.208Z,11.15
2023-02-22T18:33:06.876Z,10.95
2023-02-22T18:35:43.677Z,10.96
2023-02-22T18:38:14.654Z,10.27
2023-02-22T18:40:46.942Z,9.96
2023-02-22T18:43:15.098Z,10.19
2023-02-22T18:45:48.800Z,10.36
2023-02-22T18:48:22.909Z,10.49
2023-02-22T18:50:53.349Z,10.66
2023-02-22T18:53:22.089Z,10.76
2023-02-22T18:55:49.886Z,10.82
2023-02-22T18:58:17.860Z,10.80
2023-02-22T19:00:45.923Z,10.52
2023-02-22T19:03:13.995Z,10.29
2023-02-22T19:05:42.075Z,10.47
2023-02-22T19:08:11.600Z,10.57
2023-02-22T19:10:39.760Z,10.70
2023-02-22T19:13:10.900Z,10.80
2023-02-22T19:15:39.461Z,10.76
2023-02-22T19:18:07.365Z,10.77
2023-02-22T19:20:35.225Z,10.68
2023-02-22T19:23:03.237Z,10.57
2023-02-22T19:25:34.769Z,10.43
2023-02-22T19:28:03.184Z,10.34
2023-02-22T19:30:36.971Z,10.22
2023-02-22T19:33:05.140Z,10.07
2023-02-22T19:35:33.141Z,10.18
2023-02-22T19:38:03.284Z,10.25
2023-02-22T19:40:33.706Z,10.34
2023-02-22T19:43:01.873Z,10.36
2023-02-22T19:45:30.705Z,10.44
2023-02-22T19:47:58.609Z,10.49
2023-02-22T19:50:28.351Z,10.43
2023-02-22T19:52:58.464Z,10.42
2023-02-22T19:55:32.658Z,10.39
2023-02-22T19:58:01.798Z,10.40
2023-02-22T20:00:35.733Z,10.31
2023-02-22T20:03:09.325Z,10.26
2023-02-22T20:05:40.805Z,10.26
2023-02-22T20:08:10.668Z,10.29
2023-02-22T20:10:40.115Z,10.40
2023-02-22T20:13:11.803Z,10.45
2023-02-22T20:15:40.037Z,10.48
2023-02-22T20:18:10.305Z,10.47
2023-02-22T20:20:40.857Z,10.44
2023-02-22T20:23:10.797Z,10.45
2023-02-22T20:25:38.791Z,10.52
2023-02-22T20:28:08.504Z,10.54
2023-02-22T20:30:39.497Z,10.51
2023-02-22T20:33:10.458Z,10.52
2023-02-22T20:35:38.735Z,10.55
2023-02-22T20:38:06.949Z,10.55
2023-02-22T20:40:35.584Z,10.60
2023-02-22T20:43:04.839Z,10.66
2023-02-22T20:45:33.206Z,10.59
2023-02-22T20:48:02.630Z,10.47
2023-02-22T20:50:33.055Z,10.52
2023-02-22T20:53:03.189Z,10.72
2023-02-22T20:55:31.349Z,10.69
2023-02-22T20:57:59.171Z,10.64
2023-02-22T21:00:26.951Z,10.46
2023-02-22T21:02:56.248Z,10.39
2023-02-22T21:05:25.662Z,10.30
2023-02-22T21:07:56.803Z,10.18
2023-02-22T21:10:24.477Z,10.31
2023-02-22T21:12:52.407Z,10.45
2023-02-22T21:15:26.389Z,10.51
2023-02-22T21:17:54.304Z,10.32
2023-02-22T21:20:21.986Z,10.20
2023-02-22T21:22:55.739Z,10.13
2023-02-22T21:25:31.459Z,10.08
2023-02-22T21:28:05.528Z,10.03
2023-02-22T21:30:40.183Z,9.84
2023-02-22T21:33:08.448Z,9.92
2023-02-22T21:35:40.731Z,10.03
2023-02-22T21:38:14.822Z,9.93
2023-02-22T21:40:42.706Z,10.02
2023-02-22T21:43:10.965Z,10.15
2023-02-22T21:45:39.106Z,10.31
2023-02-22T21:48:10.592Z,10.58
2023-02-22T21:50:38.576Z,10.78
2023-02-22T21:53:07.362Z,10.84
2023-02-22T21:55:38.165Z,10.88
2023-02-22T21:58:06.346Z,11.00
2023-02-22T22:00:38.337Z,11.20
2023-02-22T22:03:08.985Z,11.34
2023-02-22T22:05:39.494Z,11.48
2023-02-22T22:08:19.666Z,11.68
2023-02-22T22:10:55.285Z,11.81
2023-02-22T22:13:24.301Z,11.94
2023-02-22T22:15:53.101Z,12.03
2023-02-22T22:18:21.276Z,12.15
2023-02-22T22:20:51.694Z,12.19
2023-02-22T22:23:19.468Z,12.21
2023-02-22T22:25:51.110Z,12.23
2023-02-22T22:28:21.994Z,12.25
2023-02-22T22:30:49.733Z,12.27
2023-02-22T22:33:17.686Z,12.27
2023-02-22T22:35:45.785Z,12.26
2023-02-22T22:38:14.653Z,12.34
2023-02-22T22:40:42.532Z,12.35
2023-02-22T22:43:10.156Z,12.39
2023-02-22T22:45:40.907Z,12.31
2023-02-22T22:48:15.152Z,12.30
2023-02-22T22:50:50.281Z,12.39
2023-02-22T22:53:18.891Z,12.33
2023-02-22T22:55:46.784Z,12.39
2023-02-22T22:58:15.170Z,12.39
2023-02-22T23:00:46.233Z,12.41
2023-02-22T23:03:17.934Z,12.39
2023-02-22T23:05:46.251Z,12.16
2023-02-22T23:08:13.888Z,12.20
2023-02-22T23:10:42.295Z,12.10
2023-02-22T23:13:10.949Z,12.08
2023-02-22T23:15:45.053Z,12.22
2023-02-22T23:18:14.789Z,12.23
2023-02-22T23:20:45.820Z,12.27
2023-02-22T23:23:14.849Z,12.28
2023-02-22T23:25:43.159Z,12.17
2023-02-22T23:28:14.830Z,12.04
2023-02-22T23:30:44.595Z,12.08
2023-02-22T23:33:14.898Z,12.31
2023-02-22T23:35:49.898Z,12.43
2023-02-22T23:38:17.918Z,12.52
2023-02-22T23:40:47.354Z,12.45
2023-02-22T23:43:16.932Z,12.49
2023-02-22T23:45:49.560Z,12.53
2023-02-22T23:48:21.161Z,12.55
2023-02-22T23:50:51.304Z,12.51
2023-02-22T23:53:19.690Z,12.59
2023-02-22T23:55:47.591Z,12.68
2023-02-22T23:58:15.568Z,12.65
